Arctic Bay, Canada
Current Conditions -  °F | °C
As of 9:00 PM on Thursday 27 Nov 2014 (Local Time) from CYIO Reporting Station
Light Snow Light Snow  
Wind Chill: -15°   Ceiling: 5500
Heat Index: -15°   Visibility: 7mi
Dew Point: -20°   Wind: 2mph
Humidity: 77%   Direction: 190°S
Pressure: 29.62"   Gusts: NA
Location:  73.03°N, 85.17°W
Report Text: CYIO 280300Z AUTO 19002KT 7SM -SN OVC055 M26/M29 A2962 RMK SLP042
Loading
Personal Weather Stations






























Interactive Weather Map New forecast layout! Learn more

10-Day Weather Forecast

Advertisements
Track Severe Weather on mobile